CheckWX is a tool to help pilots better visualize weather data.  It is not intended as a substitute for an official pre-flight weather briefing.

07:45:35 UTC

KSBN METAR
South Bend International Airport
South Bend, Indiana, USA
Current

2 hours ago

KSBN 310611Z AUTO 34009KT 10SM BKN013 OVC060 02/M01 A3010 RMK AO2 T00221006
Observed
Mar-31 @ 06:11 UTC
Wind
  • 340° at 9 KTS
Visibility
10 SM
Flight Rules
MVFR
Cloud Levels
  • Broken at 1,300' AGL
  • Overcast at 6,000' AGL
Temperature
C / 36°F
Dewpoint
-1°C / 30°F
Humidity
81%
Altimeter
30.1" Hg
Pressure
1019.32 hPa
Previous

2 hours ago

KSBN 310554Z AUTO 34010KT 10SM SCT013 OVC060 02/M01 A3011 RMK AO2 SLP202 T00221006 10044 20017 58009
Observed
Mar-31 @ 05:54 UTC
Wind
  • 340° at 10 KTS
Visibility
10 SM
Flight Rules
VFR
Cloud Levels
  • Scattered at 1,300' AGL
  • Overcast at 6,000' AGL
Temperature
C / 36°F
Dewpoint
-1°C / 30°F
Humidity
81%
Altimeter
30.11" Hg
Pressure
1019.62 hPa
Previous

3 hours ago

KSBN 310454Z AUTO 32010KT 10SM OVC060 03/M01 A3013 RMK AO2 SLP208 T00281006 400720017
Observed
Mar-31 @ 04:54 UTC
Wind
  • 320° at 10 KTS
Visibility
10 SM
Flight Rules
VFR
Cloud Levels
  • Overcast at 6,000' AGL
Temperature
C / 37°F
Dewpoint
-1°C / 30°F
Humidity
75%
Altimeter
30.13" Hg
Pressure
1020.32 hPa